createdAt,value
2022-09-28T00:01:52.035Z,72.35
2022-09-28T00:04:14.654Z,72.62
2022-09-28T00:06:38.095Z,72.76
2022-09-28T00:09:01.881Z,72.73
2022-09-28T00:11:28.124Z,72.78
2022-09-28T00:13:52.934Z,73.10
2022-09-28T00:16:19.634Z,73.09
2022-09-28T00:18:42.779Z,73.41
2022-09-28T00:21:13.915Z,72.84
2022-09-28T00:23:57.739Z,73.14
2022-09-28T00:26:20.357Z,73.08
2022-09-28T00:28:42.983Z,73.44
2022-09-28T00:31:05.742Z,72.96
2022-09-28T00:33:28.333Z,72.85
2022-09-28T00:35:58.143Z,72.91
2022-09-28T00:38:20.685Z,73.25
2022-09-28T00:40:43.495Z,72.93
2022-09-28T00:43:22.759Z,73.47
2022-09-28T00:45:48.406Z,73.61
2022-09-28T00:48:11.824Z,73.82
2022-09-28T00:50:36.984Z,73.55
2022-09-28T00:53:11.460Z,73.78
2022-09-28T00:55:40.479Z,73.00
2022-09-28T00:58:05.341Z,73.56
2022-09-28T01:00:28.406Z,72.30
2022-09-28T01:02:51.450Z,72.22
2022-09-28T01:05:14.840Z,72.14
2022-09-28T01:07:38.980Z,72.69
2022-09-28T01:10:01.843Z,72.33
2022-09-28T01:12:25.184Z,72.57
2022-09-28T01:14:48.995Z,72.02
2022-09-28T01:17:25.816Z,71.91
2022-09-28T01:20:14.415Z,71.99
2022-09-28T01:23:13.027Z,72.01
2022-09-28T01:25:55.142Z,71.75
2022-09-28T01:28:20.733Z,71.67
2022-09-28T01:30:55.559Z,71.46
2022-09-28T01:33:26.720Z,71.43
2022-09-28T01:36:06.193Z,71.78
2022-09-28T01:38:41.007Z,71.13
2022-09-28T01:41:06.471Z,71.35
2022-09-28T01:43:32.424Z,71.07
2022-09-28T01:46:05.006Z,71.60
2022-09-28T01:48:41.133Z,71.26
2022-09-28T01:51:08.440Z,71.65
2022-09-28T01:53:46.252Z,71.24
2022-09-28T01:56:17.880Z,71.11
2022-09-28T01:58:46.802Z,70.92
2022-09-28T02:01:19.415Z,70.91
2022-09-28T02:03:50.752Z,70.88
2022-09-28T02:06:19.052Z,70.95
2022-09-28T02:09:07.260Z,71.12
2022-09-28T02:11:40.392Z,71.04
2022-09-28T02:14:09.801Z,71.07
2022-09-28T02:16:39.433Z,70.94
2022-09-28T02:19:03.333Z,71.92
2022-09-28T02:21:47.593Z,71.04
2022-09-28T02:24:20.649Z,71.59
2022-09-28T02:26:47.899Z,71.56
2022-09-28T02:29:10.667Z,72.18
2022-09-28T02:31:33.480Z,71.78
2022-09-28T02:33:58.059Z,72.11
2022-09-28T02:36:20.891Z,72.09
2022-09-28T02:38:43.408Z,72.09
2022-09-28T02:41:32.334Z,71.89
2022-09-28T02:43:58.292Z,71.43
2022-09-28T02:46:42.844Z,72.24
2022-09-28T02:49:21.881Z,71.22
2022-09-28T02:52:04.865Z,71.78
2022-09-28T02:54:59.696Z,71.57
2022-09-28T02:58:00.844Z,70.96
2022-09-28T03:00:24.216Z,71.93
2022-09-28T03:03:09.267Z,71.64
2022-09-28T03:05:47.743Z,70.88
2022-09-28T03:08:45.258Z,71.05
2022-09-28T03:11:16.709Z,71.00
2022-09-28T03:13:43.126Z,71.38
2022-09-28T03:16:14.840Z,71.87
2022-09-28T03:18:39.818Z,71.49
2022-09-28T03:21:04.445Z,72.16
2022-09-28T03:23:27.094Z,71.62
2022-09-28T03:25:49.550Z,71.80
2022-09-28T03:28:12.373Z,71.51
2022-09-28T03:30:36.651Z,72.33
2022-09-28T03:33:00.438Z,72.62
2022-09-28T03:35:25.620Z,72.74
2022-09-28T03:37:48.371Z,73.22
2022-09-28T03:40:10.976Z,73.03
2022-09-28T03:42:36.091Z,73.15
2022-09-28T03:44:58.701Z,72.62
2022-09-28T03:47:21.484Z,72.58
2022-09-28T03:49:45.668Z,71.96
2022-09-28T03:52:08.327Z,72.21
2022-09-28T03:54:30.815Z,71.91
2022-09-28T03:56:53.764Z,72.00
2022-09-28T03:59:16.656Z,72.03
2022-09-28T04:01:40.269Z,71.91
2022-09-28T04:04:03.202Z,72.34
2022-09-28T04:06:26.801Z,72.43
2022-09-28T04:08:49.734Z,71.93
2022-09-28T04:11:12.440Z,71.95
2022-09-28T04:13:37.100Z,71.75
2022-09-28T04:16:02.030Z,70.57
2022-09-28T04:18:30.023Z,71.35
2022-09-28T04:21:27.605Z,70.46
2022-09-28T04:23:58.160Z,70.48
2022-09-28T04:26:23.646Z,71.15
2022-09-28T04:29:06.832Z,71.23
2022-09-28T04:31:30.834Z,70.76
2022-09-28T04:33:53.839Z,71.37
2022-09-28T04:36:16.544Z,71.68
2022-09-28T04:38:52.393Z,72.05
2022-09-28T04:41:17.367Z,71.36
2022-09-28T04:43:39.912Z,71.82
2022-09-28T04:46:03.475Z,73.11
2022-09-28T04:48:32.604Z,72.83
2022-09-28T04:51:15.590Z,72.05
2022-09-28T04:53:38.484Z,73.13
2022-09-28T04:56:06.688Z,73.44
2022-09-28T04:58:30.266Z,73.89
2022-09-28T05:00:54.291Z,74.50
2022-09-28T05:03:37.082Z,74.52
2022-09-28T05:06:15.338Z,74.29
2022-09-28T05:08:40.791Z,75.46
2022-09-28T05:11:05.916Z,76.24
2022-09-28T05:13:29.521Z,76.60
2022-09-28T05:15:57.550Z,76.34
2022-09-28T05:18:23.073Z,76.54
2022-09-28T05:20:56.059Z,77.28
2022-09-28T05:23:19.244Z,77.09
2022-09-28T05:25:42.830Z,76.95
2022-09-28T05:28:12.691Z,77.69
2022-09-28T05:31:05.266Z,77.92
2022-09-28T05:33:47.840Z,77.30
2022-09-28T05:36:13.496Z,76.79
2022-09-28T05:38:38.324Z,76.75
2022-09-28T05:41:05.693Z,76.16
2022-09-28T05:43:29.236Z,75.05
2022-09-28T05:45:55.643Z,74.08
2022-09-28T05:48:19.085Z,73.68
2022-09-28T05:50:42.187Z,72.83
2022-09-28T05:53:08.293Z,72.79
2022-09-28T05:55:33.682Z,72.98
2022-09-28T05:58:05.475Z,72.99
2022-09-28T06:00:29.356Z,72.79
2022-09-28T06:03:00.244Z,72.53
2022-09-28T06:05:24.752Z,71.79
2022-09-28T06:07:48.464Z,71.07
2022-09-28T06:10:11.341Z,70.58
2022-09-28T06:12:37.996Z,69.85
2022-09-28T06:15:07.757Z,69.32
2022-09-28T06:17:30.475Z,68.54
2022-09-28T06:20:13.255Z,68.34
2022-09-28T06:23:05.155Z,68.07
2022-09-28T06:25:28.872Z,65.42
2022-09-28T06:27:59.538Z,64.60
2022-09-28T06:30:23.550Z,64.81
2022-09-28T06:32:46.252Z,64.89
2022-09-28T06:35:09.971Z,64.89
2022-09-28T06:37:33.196Z,64.57
2022-09-28T06:39:57.606Z,64.32
2022-09-28T06:42:20.614Z,63.17
2022-09-28T06:45:04.610Z,63.98
2022-09-28T06:47:53.084Z,64.75
2022-09-28T06:50:41.253Z,64.25
2022-09-28T06:53:23.784Z,63.39
2022-09-28T06:55:52.489Z,64.17
2022-09-28T06:58:17.565Z,63.71
2022-09-28T07:00:44.952Z,62.76
2022-09-28T07:03:11.962Z,61.99
2022-09-28T07:05:56.803Z,62.39
2022-09-28T07:09:00.472Z,63.08
2022-09-28T07:12:10.752Z,61.81
2022-09-28T07:14:56.176Z,61.90
2022-09-28T07:17:19.525Z,61.99
2022-09-28T07:19:44.595Z,61.93
2022-09-28T07:22:07.356Z,61.66
2022-09-28T07:24:30.356Z,61.91
2022-09-28T07:27:11.980Z,60.61
2022-09-28T07:29:53.438Z,60.64
2022-09-28T07:35:16.255Z,61.80
2022-09-28T07:37:43.118Z,61.51
2022-09-28T07:40:26.826Z,59.80
2022-09-28T07:42:49.764Z,54.73
2022-09-28T07:45:12.765Z,51.78
2022-09-28T07:47:57.150Z,50.13
2022-09-28T07:50:33.268Z,46.83
2022-09-28T07:53:03.000Z,48.54
2022-09-28T07:56:07.401Z,49.07
2022-09-28T07:58:39.802Z,51.44
2022-09-28T08:01:22.849Z,50.64
2022-09-28T08:03:48.017Z,51.40
2022-09-28T08:06:12.730Z,53.31
2022-09-28T08:08:36.099Z,55.71
2022-09-28T08:10:59.378Z,54.66
2022-09-28T08:13:41.512Z,54.93
2022-09-28T08:16:22.690Z,56.42
2022-09-28T08:19:08.514Z,57.16
2022-09-28T08:21:46.394Z,57.96
2022-09-28T08:24:09.657Z,58.34
2022-09-28T08:26:32.415Z,58.16
2022-09-28T08:28:55.014Z,58.05
2022-09-28T08:31:37.814Z,58.16
2022-09-28T08:34:13.880Z,58.63
2022-09-28T08:36:54.776Z,58.95
2022-09-28T08:39:36.949Z,58.86
2022-09-28T08:42:32.035Z,59.03
2022-09-28T08:45:35.080Z,59.55
2022-09-28T08:48:56.947Z,59.92
2022-09-28T08:51:55.216Z,58.33
2022-09-28T08:54:56.800Z,57.77
2022-09-28T08:57:37.188Z,58.27
2022-09-28T09:00:02.742Z,58.38
2022-09-28T09:02:36.166Z,59.00
2022-09-28T09:05:24.221Z,59.77
2022-09-28T09:08:25.447Z,58.35
2022-09-28T09:11:24.876Z,58.83
2022-09-28T09:14:08.999Z,58.77
2022-09-28T09:16:43.111Z,60.36
2022-09-28T09:19:26.998Z,60.76
2022-09-28T09:22:47.939Z,59.20
2022-09-28T09:25:38.762Z,58.57
2022-09-28T09:28:35.342Z,58.29
2022-09-28T09:31:22.886Z,58.87
2022-09-28T09:34:17.932Z,56.60
2022-09-28T09:37:04.254Z,56.79
2022-09-28T09:40:04.838Z,56.57
2022-09-28T09:43:31.725Z,55.87
2022-09-28T09:46:48.394Z,55.82
2022-09-28T09:49:23.330Z,57.15
2022-09-28T09:51:59.631Z,59.18
2022-09-28T09:54:30.281Z,58.27
2022-09-28T09:56:56.824Z,56.49
2022-09-28T09:59:43.110Z,55.41
2022-09-28T10:02:35.157Z,55.65
2022-09-28T10:05:11.009Z,54.38
2022-09-28T10:07:51.052Z,54.43
2022-09-28T10:10:35.807Z,52.72
2022-09-28T10:13:09.215Z,52.57
2022-09-28T10:15:35.451Z,52.61
2022-09-28T10:18:21.642Z,52.38
2022-09-28T10:21:03.464Z,53.82
2022-09-28T10:23:36.759Z,54.75
2022-09-28T10:26:07.467Z,54.01
2022-09-28T10:28:40.858Z,54.44
2022-09-28T10:31:42.505Z,53.88
2022-09-28T10:34:40.347Z,54.79
2022-09-28T10:37:13.022Z,54.71
2022-09-28T10:39:56.329Z,54.14
2022-09-28T10:42:27.213Z,53.11
2022-09-28T10:44:59.349Z,54.36
2022-09-28T10:47:32.827Z,52.96
2022-09-28T10:49:56.144Z,52.18
2022-09-28T10:52:40.453Z,52.86
2022-09-28T10:55:33.037Z,53.78
2022-09-28T10:57:56.515Z,54.26
2022-09-28T11:00:33.440Z,54.96
2022-09-28T11:03:52.027Z,55.60
2022-09-28T11:06:14.865Z,55.22
2022-09-28T11:08:39.616Z,52.38
2022-09-28T11:11:13.036Z,53.55
2022-09-28T11:13:41.434Z,54.20
2022-09-28T11:16:06.724Z,54.23
2022-09-28T11:18:34.696Z,55.01
2022-09-28T11:21:29.763Z,56.14
2022-09-28T11:24:02.102Z,56.82
2022-09-28T11:26:25.859Z,57.86
2022-09-28T11:28:53.244Z,56.08
2022-09-28T11:31:30.257Z,55.34
2022-09-28T11:34:27.786Z,55.58
2022-09-28T11:37:11.883Z,54.72
2022-09-28T11:39:54.474Z,55.90
2022-09-28T11:43:01.950Z,56.56
2022-09-28T11:45:49.654Z,56.48
2022-09-28T11:48:17.081Z,56.46
2022-09-28T11:50:47.334Z,57.29
2022-09-28T11:53:33.000Z,57.67
2022-09-28T11:56:08.915Z,57.50
2022-09-28T11:58:44.809Z,56.28
2022-09-28T12:01:36.145Z,58.69
2022-09-28T12:04:33.877Z,59.59
2022-09-28T12:07:03.746Z,60.04
2022-09-28T12:09:33.408Z,60.41
2022-09-28T12:12:24.116Z,60.95
2022-09-28T12:14:55.708Z,61.08
2022-09-28T12:18:00.891Z,61.43
2022-09-28T12:20:30.549Z,61.14
2022-09-28T12:23:21.236Z,60.85
2022-09-28T12:25:58.007Z,61.00
2022-09-28T12:28:41.426Z,59.74
2022-09-28T12:31:16.091Z,61.16
2022-09-28T12:33:46.431Z,60.22
2022-09-28T12:36:18.040Z,59.93
2022-09-28T12:39:17.530Z,60.00
2022-09-28T12:42:15.034Z,58.92
2022-09-28T12:45:02.426Z,58.82
2022-09-28T12:47:32.692Z,58.01
2022-09-28T12:53:31.147Z,57.89
2022-09-28T12:56:21.620Z,58.45
2022-09-28T12:58:59.965Z,58.53
2022-09-28T13:01:28.673Z,58.67
2022-09-28T13:04:09.223Z,58.84
2022-09-28T13:06:46.996Z,57.44
2022-09-28T13:09:19.886Z,58.66
2022-09-28T13:12:09.729Z,59.29
2022-09-28T13:15:01.932Z,59.31
2022-09-28T13:17:44.561Z,58.85
2022-09-28T13:20:13.157Z,57.07
2022-09-28T13:23:17.562Z,57.81
2022-09-28T13:25:45.130Z,56.76
2022-09-28T13:28:08.132Z,56.52
2022-09-28T13:30:34.958Z,55.50
2022-09-28T13:33:01.061Z,55.47
2022-09-28T13:35:24.191Z,55.29
2022-09-28T13:37:48.690Z,56.31
2022-09-28T13:40:11.675Z,54.96
2022-09-28T13:42:46.261Z,54.96
2022-09-28T13:45:20.916Z,55.07
2022-09-28T13:47:52.807Z,55.52
2022-09-28T13:50:43.771Z,55.27
2022-09-28T13:53:32.698Z,54.98
2022-09-28T13:56:36.036Z,54.59
2022-09-28T13:59:01.861Z,54.98
2022-09-28T14:01:40.188Z,54.47
2022-09-28T14:04:20.959Z,54.53
2022-09-28T14:06:55.784Z,54.93
2022-09-28T14:09:40.193Z,54.44
2022-09-28T14:12:23.667Z,54.59
2022-09-28T14:14:48.624Z,54.90
2022-09-28T14:17:26.125Z,55.89
2022-09-28T14:20:14.175Z,56.52
2022-09-28T14:22:56.255Z,57.38
2022-09-28T14:25:23.718Z,57.46
2022-09-28T14:28:01.349Z,57.66
2022-09-28T14:30:30.019Z,58.46
2022-09-28T14:32:56.532Z,56.88
2022-09-28T14:35:40.679Z,57.29
2022-09-28T14:38:38.199Z,58.17
2022-09-28T14:41:11.518Z,58.36
2022-09-28T14:43:34.439Z,58.62
2022-09-28T14:46:13.185Z,58.17
2022-09-28T14:48:50.966Z,58.44
2022-09-28T14:51:31.748Z,58.19
2022-09-28T14:54:21.694Z,58.95
2022-09-28T14:56:53.325Z,58.07
2022-09-28T14:59:25.115Z,59.44
2022-09-28T15:01:53.999Z,59.30
2022-09-28T15:04:17.401Z,60.13
2022-09-28T15:06:51.340Z,59.82
2022-09-28T15:09:35.117Z,60.56
2022-09-28T15:12:18.038Z,61.06
2022-09-28T15:15:17.442Z,61.62
2022-09-28T15:17:40.651Z,61.69
2022-09-28T15:20:24.423Z,61.05
2022-09-28T15:22:48.969Z,62.13
2022-09-28T15:25:31.952Z,61.24
2022-09-28T15:28:03.452Z,61.95
2022-09-28T15:30:31.996Z,61.39
2022-09-28T15:32:56.962Z,61.43
2022-09-28T15:35:22.542Z,61.35
2022-09-28T15:37:45.893Z,61.73
2022-09-28T15:40:15.397Z,61.81
2022-09-28T15:42:38.285Z,62.26
2022-09-28T15:45:26.838Z,62.52
2022-09-28T15:48:15.790Z,62.42
2022-09-28T15:50:44.608Z,63.17
2022-09-28T15:53:14.991Z,63.77
2022-09-28T15:55:41.664Z,64.05
2022-09-28T15:58:22.868Z,64.38
2022-09-28T16:00:48.754Z,64.96
2022-09-28T16:03:11.570Z,65.81
2022-09-28T16:05:49.476Z,65.88
2022-09-28T16:08:36.884Z,66.43
2022-09-28T16:11:20.819Z,65.89
2022-09-28T16:14:06.245Z,66.55
2022-09-28T16:16:48.421Z,67.07
2022-09-28T16:19:36.188Z,67.71
2022-09-28T16:22:03.912Z,67.61
2022-09-28T16:24:36.083Z,68.17
2022-09-28T16:27:05.233Z,67.97
2022-09-28T16:29:40.312Z,68.22
2022-09-28T16:32:27.523Z,68.42
2022-09-28T16:35:12.642Z,68.81
2022-09-28T16:37:35.971Z,68.50
2022-09-28T16:39:58.702Z,68.86
2022-09-28T16:42:21.434Z,68.81
2022-09-28T16:44:45.261Z,68.63
2022-09-28T16:47:07.978Z,69.01
2022-09-28T16:49:33.475Z,68.91
2022-09-28T16:51:56.147Z,68.65
2022-09-28T16:54:39.963Z,68.75
2022-09-28T16:57:05.028Z,69.19
2022-09-28T16:59:28.681Z,69.13
2022-09-28T17:01:51.531Z,69.57
2022-09-28T17:04:14.148Z,70.09
2022-09-28T17:06:37.209Z,70.04
2022-09-28T17:09:00.171Z,69.94
2022-09-28T17:11:24.926Z,70.22
2022-09-28T17:13:47.974Z,69.89
2022-09-28T17:16:28.255Z,70.63
2022-09-28T17:19:03.091Z,71.64
2022-09-28T17:21:26.193Z,72.50
2022-09-28T17:23:50.375Z,72.79
2022-09-28T17:26:33.495Z,73.15
2022-09-28T17:28:58.879Z,73.29
2022-09-28T17:31:21.542Z,73.34
2022-09-28T17:33:44.236Z,74.37
2022-09-28T17:36:07.292Z,74.65
2022-09-28T17:38:30.173Z,74.47
2022-09-28T17:40:52.909Z,74.52
2022-09-28T17:43:15.565Z,74.53
2022-09-28T17:45:41.120Z,74.89
2022-09-28T17:48:03.874Z,75.15
2022-09-28T17:50:29.838Z,75.30
2022-09-28T17:52:53.178Z,76.28
2022-09-28T17:55:15.760Z,76.91
2022-09-28T17:57:38.543Z,77.27
2022-09-28T18:00:01.379Z,77.75
2022-09-28T18:02:27.036Z,77.68
2022-09-28T18:04:52.224Z,78.84
2022-09-28T18:07:15.200Z,78.49
2022-09-28T18:09:37.863Z,78.68
2022-09-28T18:12:04.177Z,79.72
2022-09-28T18:14:27.134Z,80.61
2022-09-28T18:16:49.778Z,81.08
2022-09-28T18:19:15.240Z,81.43
2022-09-28T18:21:37.899Z,82.14
2022-09-28T18:24:00.653Z,82.57
2022-09-28T18:26:23.484Z,82.53
2022-09-28T18:29:06.546Z,81.97
2022-09-28T18:31:29.398Z,82.73
2022-09-28T18:34:00.046Z,82.24
2022-09-28T18:36:28.450Z,82.73
2022-09-28T18:38:51.277Z,83.72
2022-09-28T18:41:15.804Z,84.22
2022-09-28T18:43:38.591Z,84.52
2022-09-28T18:46:07.442Z,84.53
2022-09-28T18:48:29.994Z,84.99
2022-09-28T18:50:52.654Z,85.20
2022-09-28T18:53:15.490Z,85.71
2022-09-28T18:55:42.532Z,85.87
2022-09-28T18:58:06.569Z,85.81
2022-09-28T19:00:29.433Z,86.55
2022-09-28T19:02:52.224Z,86.38
2022-09-28T19:05:14.930Z,85.84
2022-09-28T19:07:37.510Z,86.09
2022-09-28T19:10:00.167Z,86.18
2022-09-28T19:12:23.845Z,85.84
2022-09-28T19:14:46.479Z,86.11
2022-09-28T19:17:10.034Z,86.94
2022-09-28T19:19:32.980Z,87.06
2022-09-28T19:21:56.303Z,86.93
2022-09-28T19:24:19.595Z,86.68
2022-09-28T19:26:42.714Z,87.02
2022-09-28T19:29:05.283Z,87.47
2022-09-28T19:31:29.276Z,87.27
2022-09-28T19:33:51.803Z,87.44
2022-09-28T19:36:18.250Z,87.37
2022-09-28T19:38:41.277Z,87.36
2022-09-28T19:41:40.888Z,87.49
2022-09-28T19:44:06.538Z,87.47
2022-09-28T19:46:31.227Z,87.76
2022-09-28T19:48:54.702Z,87.76
2022-09-28T19:51:17.551Z,87.80
2022-09-28T19:53:41.095Z,87.74
2022-09-28T19:56:05.605Z,87.93
2022-09-28T19:58:30.671Z,87.91
2022-09-28T20:00:54.420Z,87.66
2022-09-28T20:03:18.639Z,87.55
2022-09-28T20:05:42.428Z,87.18
2022-09-28T20:08:04.972Z,87.40
2022-09-28T20:10:27.488Z,87.90
2022-09-28T20:12:51.656Z,88.09
2022-09-28T20:15:14.672Z,88.17
2022-09-28T20:17:37.884Z,88.48
2022-09-28T20:20:00.771Z,88.55
2022-09-28T20:22:23.703Z,88.62
2022-09-28T20:24:46.641Z,88.60
2022-09-28T20:27:09.200Z,88.66
2022-09-28T20:29:33.203Z,89.22
2022-09-28T20:31:56.718Z,89.38
2022-09-28T20:34:19.349Z,89.94
2022-09-28T20:36:44.706Z,89.54
2022-09-28T20:39:07.170Z,89.66
2022-09-28T20:41:34.747Z,89.72
2022-09-28T20:44:04.117Z,89.69
2022-09-28T20:46:28.124Z,89.96
2022-09-28T20:48:51.369Z,89.52
2022-09-28T20:51:16.088Z,89.87
2022-09-28T20:53:40.040Z,90.05
2022-09-28T20:56:06.294Z,90.05
2022-09-28T20:58:29.039Z,90.05
2022-09-28T21:00:51.677Z,90.06
2022-09-28T21:03:14.185Z,90.03
2022-09-28T21:05:36.831Z,90.35
2022-09-28T21:07:59.262Z,90.58
2022-09-28T21:10:22.322Z,90.45
2022-09-28T21:12:50.258Z,90.38
2022-09-28T21:15:12.907Z,90.57
2022-09-28T21:17:35.848Z,90.14
2022-09-28T21:19:58.381Z,90.60
2022-09-28T21:22:20.953Z,90.58
2022-09-28T21:24:43.500Z,90.33
2022-09-28T21:27:06.294Z,90.56
2022-09-28T21:29:28.949Z,90.75
2022-09-28T21:31:51.369Z,90.67
2022-09-28T21:34:19.427Z,90.48
2022-09-28T21:36:43.592Z,90.47
2022-09-28T21:39:10.193Z,90.37
2022-09-28T21:41:33.073Z,90.18
2022-09-28T21:43:55.808Z,89.78
2022-09-28T21:46:18.553Z,89.72
2022-09-28T21:48:41.379Z,89.40
2022-09-28T21:51:06.358Z,89.25
2022-09-28T21:53:31.756Z,88.90
2022-09-28T21:55:55.796Z,89.00
2022-09-28T21:58:23.252Z,89.30
2022-09-28T22:00:45.721Z,88.98
2022-09-28T22:03:08.311Z,88.79
2022-09-28T22:05:30.928Z,88.71
2022-09-28T22:07:53.969Z,88.61
2022-09-28T22:10:16.432Z,88.32
2022-09-28T22:12:39.072Z,88.54
2022-09-28T22:15:02.035Z,88.82
2022-09-28T22:17:24.948Z,88.35
2022-09-28T22:19:47.536Z,88.18
2022-09-28T22:22:09.964Z,87.88
2022-09-28T22:24:32.501Z,88.10
2022-09-28T22:26:54.995Z,88.10
2022-09-28T22:29:18.134Z,88.09
2022-09-28T22:31:41.155Z,87.95
2022-09-28T22:34:04.656Z,87.97
2022-09-28T22:36:28.066Z,87.97
2022-09-28T22:38:50.561Z,87.76
2022-09-28T22:41:18.745Z,88.54
2022-09-28T22:43:42.892Z,88.16
2022-09-28T22:46:11.103Z,88.55
2022-09-28T22:48:34.830Z,88.24
2022-09-28T22:50:57.388Z,88.10
2022-09-28T22:53:19.842Z,87.99
2022-09-28T22:55:42.530Z,87.89
2022-09-28T22:58:05.056Z,87.82
2022-09-28T23:00:27.996Z,87.78
2022-09-28T23:02:50.504Z,87.55
2022-09-28T23:05:13.542Z,87.66
2022-09-28T23:07:36.156Z,87.55
2022-09-28T23:10:00.662Z,87.99
2022-09-28T23:12:23.125Z,89.06
2022-09-28T23:14:45.643Z,90.06
2022-09-28T23:17:08.143Z,90.60
2022-09-28T23:19:30.875Z,91.04
2022-09-28T23:21:54.062Z,91.21
2022-09-28T23:24:16.869Z,91.18
2022-09-28T23:26:39.419Z,90.91
2022-09-28T23:29:01.994Z,91.07
2022-09-28T23:31:34.668Z,90.86
2022-09-28T23:34:05.150Z,90.66
2022-09-28T23:36:28.533Z,90.55
2022-09-28T23:38:51.086Z,90.46
2022-09-28T23:41:13.698Z,90.60
2022-09-28T23:43:36.351Z,90.46
2022-09-28T23:45:58.874Z,90.24
2022-09-28T23:48:21.796Z,89.81
2022-09-28T23:50:45.086Z,89.54
2022-09-28T23:53:07.817Z,89.50
2022-09-28T23:55:30.450Z,88.90
2022-09-28T23:57:55.641Z,88.61
